ECDRP LEZL-LEMG
Flight info
| Callsign | ECDRP |
|---|---|
| Flight time | N/A |
| Altitude | 7000 |
| Route | MAR |
| Aircraft | SR22/L-SDGRY/S |
Departure
| Time | 2026-03-26 10:46 |
|---|---|
| Airport | Seville Airport (LEZL) |
Arrival
| Time | N/A |
|---|---|
| Airport | Málaga-Costa del Sol Airport (LEMG) |
| Time | Latitude | Longitude | Altitude | Speed | Heading |
|---|---|---|---|---|---|
| 2026-03-26 10:32 | 37.42065 | -5.90610 | 81 ft | 0 kts | 91° |
| 2026-03-26 10:41 | 37.42065 | -5.90609 | 81 ft | 0 kts | 92° |
| 2026-03-26 10:42 | 37.42065 | -5.90602 | 81 ft | 0 kts | 84° |
| 2026-03-26 10:42 | 37.42067 | -5.90589 | 81 ft | 2 kts | 63° |
| 2026-03-26 10:42 | 37.42055 | -5.90592 | 81 ft | 4 kts | 188° |
| 2026-03-26 10:43 | 37.42034 | -5.90582 | 80 ft | 0 kts | 102° |
| 2026-03-26 10:43 | 37.42032 | -5.90547 | 81 ft | 6 kts | 104° |
| 2026-03-26 10:43 | 37.41983 | -5.90543 | 80 ft | 10 kts | 247° |
| 2026-03-26 10:43 | 37.41979 | -5.90647 | 78 ft | 16 kts | 271° |
| 2026-03-26 10:44 | 37.41974 | -5.90807 | 77 ft | 20 kts | 275° |
| 2026-03-26 10:44 | 37.41953 | -5.90960 | 78 ft | 17 kts | 250° |
| 2026-03-26 10:44 | 37.41892 | -5.91098 | 77 ft | 16 kts | 247° |
| 2026-03-26 10:44 | 37.41838 | -5.91177 | 77 ft | 9 kts | 204° |
| 2026-03-26 10:45 | 37.41793 | -5.91115 | 77 ft | 22 kts | 88° |
| 2026-03-26 10:45 | 37.41777 | -5.90602 | 82 ft | 87 kts | 88° |
| 2026-03-26 10:45 | 37.41762 | -5.89820 | 375 ft | 91 kts | 86° |
| 2026-03-26 10:45 | 37.41761 | -5.89015 | 631 ft | 97 kts | 85° |
| 2026-03-26 10:46 | 37.41774 | -5.88056 | 796 ft | 114 kts | 81° |
| 2026-03-26 10:46 | 37.41752 | -5.87052 | 1083 ft | 118 kts | 91° |
| 2026-03-26 10:46 | 37.41649 | -5.85948 | 1235 ft | 131 kts | 95° |
| 2026-03-26 10:46 | 37.41493 | -5.84799 | 1416 ft | 137 kts | 97° |
| 2026-03-26 10:47 | 37.41286 | -5.83617 | 1596 ft | 141 kts | 99° |
| 2026-03-26 10:47 | 37.41044 | -5.82407 | 1771 ft | 144 kts | 100° |
| 2026-03-26 10:47 | 37.41015 | -5.81180 | 1933 ft | 142 kts | 68° |
| 2026-03-26 10:47 | 37.41475 | -5.80110 | 2102 ft | 142 kts | 62° |
| 2026-03-26 10:48 | 37.41896 | -5.78991 | 2270 ft | 143 kts | 66° |
| 2026-03-26 10:48 | 37.42268 | -5.77832 | 2440 ft | 143 kts | 69° |
| 2026-03-26 10:48 | 37.42609 | -5.76672 | 2607 ft | 143 kts | 70° |
| 2026-03-26 10:48 | 37.42730 | -5.75425 | 2777 ft | 143 kts | 86° |
| 2026-03-26 10:49 | 37.42733 | -5.74185 | 2945 ft | 143 kts | 88° |
| 2026-03-26 10:49 | 37.42726 | -5.72932 | 3116 ft | 143 kts | 88° |
| 2026-03-26 10:49 | 37.42718 | -5.71679 | 3284 ft | 143 kts | 88° |
| 2026-03-26 10:49 | 37.42708 | -5.70442 | 3451 ft | 142 kts | 88° |
| 2026-03-26 10:50 | 37.42698 | -5.69196 | 3621 ft | 142 kts | 88° |
| 2026-03-26 10:50 | 37.42687 | -5.67954 | 3790 ft | 142 kts | 88° |
| 2026-03-26 10:50 | 37.42677 | -5.66690 | 3962 ft | 142 kts | 88° |
| 2026-03-26 10:50 | 37.42666 | -5.65457 | 4131 ft | 142 kts | 88° |
| 2026-03-26 10:51 | 37.42656 | -5.64208 | 4301 ft | 142 kts | 88° |
| 2026-03-26 10:51 | 37.42646 | -5.62979 | 4468 ft | 141 kts | 89° |
| 2026-03-26 10:51 | 37.42636 | -5.61747 | 4636 ft | 141 kts | 89° |
| 2026-03-26 10:51 | 37.42624 | -5.60504 | 4803 ft | 141 kts | 89° |
| 2026-03-26 10:52 | 37.42612 | -5.59274 | 4969 ft | 141 kts | 89° |
| 2026-03-26 10:52 | 37.42601 | -5.58049 | 5133 ft | 141 kts | 89° |
| 2026-03-26 10:52 | 37.42590 | -5.56810 | 5300 ft | 141 kts | 89° |
| 2026-03-26 10:52 | 37.42578 | -5.55582 | 5469 ft | 141 kts | 89° |
| 2026-03-26 10:53 | 37.42566 | -5.54357 | 5637 ft | 140 kts | 89° |
| 2026-03-26 10:53 | 37.42555 | -5.53135 | 5804 ft | 140 kts | 89° |
| 2026-03-26 10:53 | 37.42544 | -5.51920 | 5970 ft | 140 kts | 89° |
| 2026-03-26 10:53 | 37.42532 | -5.50683 | 6145 ft | 140 kts | 89° |
| 2026-03-26 10:54 | 37.42520 | -5.49467 | 6314 ft | 139 kts | 89° |
| 2026-03-26 10:54 | 37.42509 | -5.48251 | 6480 ft | 139 kts | 89° |
| 2026-03-26 10:54 | 37.42497 | -5.47043 | 6648 ft | 139 kts | 89° |
| 2026-03-26 10:54 | 37.42484 | -5.45835 | 6815 ft | 139 kts | 89° |
| 2026-03-26 10:55 | 37.42471 | -5.44624 | 6957 ft | 140 kts | 89° |
| 2026-03-26 10:55 | 37.42457 | -5.43364 | 6983 ft | 148 kts | 89° |
| 2026-03-26 10:55 | 37.42442 | -5.42029 | 6988 ft | 154 kts | 89° |
| 2026-03-26 10:55 | 37.42427 | -5.40654 | 6980 ft | 159 kts | 89° |
| 2026-03-26 10:56 | 37.42230 | -5.39281 | 6980 ft | 162 kts | 103° |
| 2026-03-26 10:56 | 37.41893 | -5.37927 | 6978 ft | 165 kts | 107° |
| 2026-03-26 10:56 | 37.41343 | -5.36632 | 6981 ft | 168 kts | 120° |
| 2026-03-26 10:56 | 37.40610 | -5.35472 | 6977 ft | 171 kts | 127° |
| 2026-03-26 10:57 | 37.39796 | -5.34389 | 6980 ft | 172 kts | 131° |
| 2026-03-26 10:57 | 37.38938 | -5.33324 | 6983 ft | 173 kts | 132° |
| 2026-03-26 10:57 | 37.38067 | -5.32277 | 6981 ft | 173 kts | 133° |
| 2026-03-26 10:57 | 37.37187 | -5.31230 | 6978 ft | 173 kts | 133° |
| 2026-03-26 10:58 | 37.35433 | -5.29157 | 6974 ft | 173 kts | 133° |
| 2026-03-26 10:58 | 37.34557 | -5.28125 | 6973 ft | 173 kts | 134° |
| 2026-03-26 10:58 | 37.33675 | -5.27089 | 6977 ft | 173 kts | 133° |
| 2026-03-26 10:59 | 37.32804 | -5.26066 | 6977 ft | 173 kts | 133° |
| 2026-03-26 10:59 | 37.31918 | -5.25022 | 6977 ft | 173 kts | 133° |
| 2026-03-26 10:59 | 37.31043 | -5.23991 | 6977 ft | 173 kts | 133° |
| 2026-03-26 10:59 | 37.30159 | -5.22949 | 6976 ft | 173 kts | 133° |
| 2026-03-26 11:00 | 37.29284 | -5.21917 | 6974 ft | 173 kts | 133° |
| 2026-03-26 11:00 | 37.28409 | -5.20884 | 6974 ft | 173 kts | 133° |
| 2026-03-26 11:00 | 37.27526 | -5.19842 | 6970 ft | 173 kts | 133° |
| 2026-03-26 11:00 | 37.26644 | -5.18804 | 6969 ft | 173 kts | 133° |
| 2026-03-26 11:01 | 37.25761 | -5.17764 | 6969 ft | 173 kts | 133° |
| 2026-03-26 11:01 | 37.24885 | -5.16731 | 6968 ft | 173 kts | 133° |
| 2026-03-26 11:01 | 37.24015 | -5.15707 | 6968 ft | 172 kts | 133° |
| 2026-03-26 11:01 | 37.23140 | -5.14678 | 6969 ft | 172 kts | 133° |
| 2026-03-26 11:02 | 37.22258 | -5.13642 | 6973 ft | 172 kts | 133° |
| 2026-03-26 11:02 | 37.21394 | -5.12627 | 6983 ft | 172 kts | 133° |
| 2026-03-26 11:02 | 37.20521 | -5.11602 | 6982 ft | 172 kts | 133° |
| 2026-03-26 11:02 | 37.19642 | -5.10566 | 6978 ft | 173 kts | 133° |
| 2026-03-26 11:03 | 37.18763 | -5.09532 | 6977 ft | 172 kts | 133° |
| 2026-03-26 11:03 | 37.17892 | -5.08509 | 6977 ft | 172 kts | 133° |
| 2026-03-26 11:03 | 37.17007 | -5.07470 | 6982 ft | 172 kts | 133° |
| 2026-03-26 11:03 | 37.16141 | -5.06454 | 6983 ft | 173 kts | 134° |
| 2026-03-26 11:04 | 37.15261 | -5.05420 | 6981 ft | 173 kts | 134° |
| 2026-03-26 11:04 | 37.14378 | -5.04386 | 6982 ft | 172 kts | 134° |
| 2026-03-26 11:04 | 37.13511 | -5.03368 | 6982 ft | 172 kts | 134° |
| 2026-03-26 11:04 | 37.12624 | -5.02331 | 6982 ft | 172 kts | 134° |
| 2026-03-26 11:05 | 37.11750 | -5.01306 | 6985 ft | 172 kts | 134° |
| 2026-03-26 11:05 | 37.10874 | -5.00279 | 6984 ft | 172 kts | 134° |
| 2026-03-26 11:05 | 37.09993 | -4.99248 | 6985 ft | 172 kts | 134° |
| 2026-03-26 11:05 | 37.09115 | -4.98220 | 6980 ft | 172 kts | 134° |
| 2026-03-26 11:06 | 37.08236 | -4.97191 | 6978 ft | 172 kts | 134° |
| 2026-03-26 11:06 | 37.07351 | -4.96157 | 6977 ft | 173 kts | 134° |
| 2026-03-26 11:06 | 37.06472 | -4.95127 | 6971 ft | 173 kts | 134° |
| 2026-03-26 11:06 | 37.05576 | -4.94081 | 6967 ft | 173 kts | 134° |
| 2026-03-26 11:07 | 37.04693 | -4.93050 | 6965 ft | 173 kts | 134° |
| 2026-03-26 11:07 | 37.03813 | -4.92025 | 6964 ft | 173 kts | 134° |
| 2026-03-26 11:07 | 37.02934 | -4.90996 | 6967 ft | 173 kts | 133° |
| 2026-03-26 11:07 | 37.02047 | -4.89953 | 6964 ft | 173 kts | 134° |
| 2026-03-26 11:08 | 37.01160 | -4.88913 | 6961 ft | 173 kts | 134° |
| 2026-03-26 11:08 | 37.00279 | -4.87885 | 6962 ft | 173 kts | 134° |
| 2026-03-26 11:08 | 36.99393 | -4.86852 | 6962 ft | 173 kts | 134° |
| 2026-03-26 11:08 | 36.98503 | -4.85817 | 6965 ft | 172 kts | 134° |
| 2026-03-26 11:09 | 36.97616 | -4.84783 | 6964 ft | 173 kts | 134° |
| 2026-03-26 11:09 | 36.96738 | -4.83764 | 6962 ft | 172 kts | 134° |
| 2026-03-26 11:09 | 36.95861 | -4.82742 | 6955 ft | 172 kts | 134° |
| 2026-03-26 11:09 | 36.94977 | -4.81715 | 6960 ft | 172 kts | 134° |
| 2026-03-26 11:10 | 36.94099 | -4.80697 | 6968 ft | 172 kts | 134° |
| 2026-03-26 11:10 | 36.93218 | -4.79672 | 6968 ft | 173 kts | 134° |
| 2026-03-26 11:10 | 36.92328 | -4.78637 | 6970 ft | 173 kts | 134° |
| 2026-03-26 11:10 | 36.91447 | -4.77613 | 6966 ft | 174 kts | 134° |
| 2026-03-26 11:11 | 36.90552 | -4.76575 | 6964 ft | 174 kts | 134° |
| 2026-03-26 11:11 | 36.89657 | -4.75535 | 6962 ft | 174 kts | 134° |
| 2026-03-26 11:11 | 36.88769 | -4.74505 | 6967 ft | 174 kts | 134° |
| 2026-03-26 11:11 | 36.87878 | -4.73473 | 6969 ft | 175 kts | 134° |
| 2026-03-26 11:12 | 36.86985 | -4.72438 | 6959 ft | 175 kts | 134° |
| 2026-03-26 11:12 | 36.86102 | -4.71415 | 6967 ft | 174 kts | 134° |
| 2026-03-26 11:12 | 36.85201 | -4.70370 | 6970 ft | 174 kts | 134° |
| 2026-03-26 11:12 | 36.84310 | -4.69339 | 6962 ft | 174 kts | 134° |
| 2026-03-26 11:13 | 36.83423 | -4.68312 | 6964 ft | 173 kts | 134° |
| 2026-03-26 11:13 | 36.82542 | -4.67291 | 6966 ft | 173 kts | 134° |
| 2026-03-26 11:13 | 36.81650 | -4.66259 | 6965 ft | 174 kts | 134° |
| 2026-03-26 11:13 | 36.80759 | -4.65230 | 6966 ft | 174 kts | 134° |
| 2026-03-26 11:14 | 36.79874 | -4.64208 | 6965 ft | 174 kts | 134° |
| 2026-03-26 11:14 | 36.78986 | -4.63182 | 6967 ft | 174 kts | 134° |
| 2026-03-26 11:14 | 36.78086 | -4.62141 | 6964 ft | 175 kts | 134° |
| 2026-03-26 11:14 | 36.77195 | -4.61109 | 6972 ft | 175 kts | 134° |
| 2026-03-26 11:15 | 36.76295 | -4.60071 | 6981 ft | 176 kts | 134° |
| 2026-03-26 11:15 | 36.75393 | -4.59032 | 6974 ft | 176 kts | 134° |
| 2026-03-26 11:15 | 36.74493 | -4.57993 | 6970 ft | 176 kts | 134° |
| 2026-03-26 11:15 | 36.73595 | -4.56956 | 6969 ft | 175 kts | 134° |
| 2026-03-26 11:16 | 36.72693 | -4.55917 | 6966 ft | 174 kts | 134° |
| 2026-03-26 11:16 | 36.71801 | -4.54889 | 6965 ft | 174 kts | 134° |
| 2026-03-26 11:16 | 36.70910 | -4.53861 | 6965 ft | 174 kts | 134° |
| 2026-03-26 11:16 | 36.70015 | -4.52831 | 6965 ft | 174 kts | 134° |
| 2026-03-26 11:17 | 36.69118 | -4.51799 | 6964 ft | 174 kts | 134° |
| 2026-03-26 11:17 | 36.68229 | -4.50775 | 6963 ft | 175 kts | 134° |
| 2026-03-26 11:17 | 36.67324 | -4.49738 | 6963 ft | 176 kts | 134° |
| 2026-03-26 11:17 | 36.66416 | -4.48710 | 6963 ft | 176 kts | 134° |
| 2026-03-26 11:18 | 36.65507 | -4.47680 | 6963 ft | 177 kts | 134° |
| 2026-03-26 11:18 | 36.64598 | -4.46647 | 6962 ft | 177 kts | 134° |
| 2026-03-26 11:18 | 36.64471 | -4.46503 | 6963 ft | 177 kts | 134° |